METAR Data
IDs: Format: Raw Decoded Include TAF

Data at: 0930 UTC 20 Sep 2018

KDTS 200853Z AUTO 33003KT 10SM SCT022 27/24 A2997 RMK AO2 SLP148 T02670244 55001
KDTS 200753Z AUTO 00000KT 10SM CLR 26/24 A2997 RMK AO2 SLP147 T02610244
KDTS 200653Z AUTO 00000KT 10SM CLR 26/24 A2997 RMK AO2 SLP147 T02610244
KDTS 200553Z AUTO 00000KT 10SM CLR 27/24 A2998 RMK AO2 SLP150 T02670244 10294 20267 403280256 50001
KDTS 200453Z AUTO 00000KT 10SM CLR 28/24 A2998 RMK AO2 SLP152 T02780244
KDTS 200353Z AUTO 00000KT 10SM CLR 29/25 A2998 RMK AO2 SLP151 T02890250
KDTS 200253Z AUTO 00000KT 10SM SCT120 27/24 A2997 RMK AO2 SLP148 T02720244 53013
KDTS 200153Z 00000KT 10SM CLR 28/24 A2996 RMK AO2 SLP143 T02780239
KDTS 200053Z 00000KT 10SM CLR 29/23 A2994 RMK AO2 SLP137 T02890233
KDTS 192353Z 00000KT 10SM FEW080 SCT120 29/23 A2993 RMK AO2 SLP135 T02940233 10328 20294 53005
KDTS 192253Z 19003KT 10SM CLR 31/24 A2993 RMK AO2 SLP133 T03110244
KDTS 192153Z 20005KT 10SM CLR 31/24 A2991 RMK AO2 LTG DSNT NE SLP129 T03110244
KDTS 192053Z VRB06KT 10SM CLR 32/24 A2992 RMK AO2 SLP130 T03170239 56016
KDTS 191953Z VRB04KT 10SM CLR 32/24 A2993 RMK AO2 SLP134 T03220239
KDTS 191853Z 19007KT 10SM CLR 32/23 A2994 RMK AO2 SLP139 T03170233
KDTS 191753Z 17006KT 10SM CLR 32/24 A2996 RMK AO2 SLP146 T03220244 10328 20261 58007
KDTS 191653Z 16004KT 10SM CLR 32/24 A2998 RMK AO2 SLP151 T03220239
KDTS 191553Z 00000KT 10SM CLR 32/23 A2999 RMK AO2 SLP154 T03220228
KDTS 191453Z 01003KT 10SM CLR 31/23 A2999 RMK AO2 SLP153 T03110233 51013
KDTS 191353Z 36004KT 10SM CLR 29/25 A2998 RMK AO2 SLP150 T02940250
KDTS 191253Z 01003KT 10SM CLR 28/25 A2997 RMK AO2 SLP147 T02830250
KDTS 191153Z 00000KT 10SM CLR 26/24 A2995 RMK AO2 SLP140 T02610244 10272 20256 53012
KDTS 191126Z 00000KT 10SM CLR 26/24 A2994 RMK AO2 T02560244
KDTS 191111Z 00000KT 10SM VCTS CLR 27/25 A2994 RMK AO2 T02670250
KDTS 191053Z 00000KT 10SM CLR 27/25 A2994 RMK AO2 SLP136 T02670250
KDTS 190953Z AUTO 00000KT 10SM CLR 27/25 A2992 RMK AO2 SLP131 T02670250
KDTS 190853Z AUTO 00000KT 10SM CLR 27/25 A2991 RMK AO2 SLP128 T02670250 56005
KDTS 190753Z AUTO 00000KT 10SM CLR 26/25 A2991 RMK AO2 SLP129 T02610250
KDTS 190653Z AUTO 00000KT 10SM CLR 27/25 A2992 RMK AO2 SLP131 T02670250
KDTS 190553Z AUTO 00000KT 10SM CLR 27/25 A2993 RMK AO2 SLP133 T02720250 10300 20267 403330261 58002
KDTS 190453Z AUTO 00000KT 10SM CLR 27/25 A2993 RMK AO2 SLP135 T02670250
KDTS 190353Z AUTO 00000KT 10SM CLR 27/24 A2994 RMK AO2 SLP137 T02670244
KDTS 190253Z 00000KT 10SM CLR 28/25 A2993 RMK AO2 SLP135 T02780250 53006
KDTS 190153Z 00000KT 10SM CLR 28/25 A2993 RMK AO2 SLP133 T02780250
KDTS 190053Z 00000KT 10SM CLR 29/25 A2991 RMK AO2 SLP129 T02940250
KDTS 182353Z 00000KT 10SM CLR 30/25 A2991 RMK AO2 SLP129 T03000250 10333 20300 53003
KDTS 182253Z 24005KT 10SM FEW028 31/24 A2990 RMK AO2 SLP125 T03110239
KDTS 182153Z 36005KT 10SM CLR 32/21 A2990 RMK AO2 SLP123 T03220211